sensor_id;sensor_type;location;lat;lon;timestamp;temperature;humidity
7129;DHT22;3606;52.930;8.644;2022-08-19T00:01:45;15.40;99.90
7129;DHT22;3606;52.930;8.644;2022-08-19T00:04:13;15.40;99.90
7129;DHT22;3606;52.930;8.644;2022-08-19T00:06:41;15.30;99.90
7129;DHT22;3606;52.930;8.644;2022-08-19T00:09:10;15.30;99.90
7129;DHT22;3606;52.930;8.644;2022-08-19T00:11:37;15.30;99.90
7129;DHT22;3606;52.930;8.644;2022-08-19T00:14:04;15.20;99.90
7129;DHT22;3606;52.930;8.644;2022-08-19T00:16:30;15.10;99.90
7129;DHT22;3606;52.930;8.644;2022-08-19T00:18:56;15.10;99.90
7129;DHT22;3606;52.930;8.644;2022-08-19T00:21:23;15.00;99.90
7129;DHT22;3606;52.930;8.644;2022-08-19T00:23:49;15.00;99.90
7129;DHT22;3606;52.930;8.644;2022-08-19T00:26:14;15.10;99.90
7129;DHT22;3606;52.930;8.644;2022-08-19T00:28:40;15.00;99.90
7129;DHT22;3606;52.930;8.644;2022-08-19T00:31:07;15.00;99.90
7129;DHT22;3606;52.930;8.644;2022-08-19T00:33:34;15.00;99.90
7129;DHT22;3606;52.930;8.644;2022-08-19T00:36:00;15.00;99.90
7129;DHT22;3606;52.930;8.644;2022-08-19T00:38:26;15.00;99.90
7129;DHT22;3606;52.930;8.644;2022-08-19T00:40:52;14.90;99.90
7129;DHT22;3606;52.930;8.644;2022-08-19T00:43:20;14.90;99.90
7129;DHT22;3606;52.930;8.644;2022-08-19T00:45:47;14.80;99.90
7129;DHT22;3606;52.930;8.644;2022-08-19T00:48:13;14.80;99.90
7129;DHT22;3606;52.930;8.644;2022-08-19T00:50:41;14.70;99.90
7129;DHT22;3606;52.930;8.644;2022-08-19T00:53:09;14.70;99.90
7129;DHT22;3606;52.930;8.644;2022-08-19T00:55:35;14.70;99.90
7129;DHT22;3606;52.930;8.644;2022-08-19T00:58:07;14.60;99.90
7129;DHT22;3606;52.930;8.644;2022-08-19T01:00:34;14.70;99.90
7129;DHT22;3606;52.930;8.644;2022-08-19T01:03:08;14.70;99.90
7129;DHT22;3606;52.930;8.644;2022-08-19T01:05:35;14.60;99.90
7129;DHT22;3606;52.930;8.644;2022-08-19T01:08:04;14.60;99.90
7129;DHT22;3606;52.930;8.644;2022-08-19T01:10:33;14.60;99.90
7129;DHT22;3606;52.930;8.644;2022-08-19T01:13:01;14.60;99.90
7129;DHT22;3606;52.930;8.644;2022-08-19T01:15:31;14.50;99.90
7129;DHT22;3606;52.930;8.644;2022-08-19T01:18:04;14.40;99.90
7129;DHT22;3606;52.930;8.644;2022-08-19T01:20:31;14.40;99.90
7129;DHT22;3606;52.930;8.644;2022-08-19T01:22:59;14.40;99.90
7129;DHT22;3606;52.930;8.644;2022-08-19T01:25:50;14.40;99.90
7129;DHT22;3606;52.930;8.644;2022-08-19T01:28:21;14.40;99.90
7129;DHT22;3606;52.930;8.644;2022-08-19T01:30:47;14.40;99.90
7129;DHT22;3606;52.930;8.644;2022-08-19T01:33:13;14.30;99.90
7129;DHT22;3606;52.930;8.644;2022-08-19T01:35:40;14.30;99.90
7129;DHT22;3606;52.930;8.644;2022-08-19T01:38:09;14.30;99.90
7129;DHT22;3606;52.930;8.644;2022-08-19T01:40:38;14.20;99.90
7129;DHT22;3606;52.930;8.644;2022-08-19T01:43:05;14.20;99.90
7129;DHT22;3606;52.930;8.644;2022-08-19T01:45:34;14.20;99.90
7129;DHT22;3606;52.930;8.644;2022-08-19T01:48:00;14.20;99.90
7129;DHT22;3606;52.930;8.644;2022-08-19T01:50:26;14.20;99.90
7129;DHT22;3606;52.930;8.644;2022-08-19T01:52:53;14.20;99.90
7129;DHT22;3606;52.930;8.644;2022-08-19T01:55:21;14.20;99.90
7129;DHT22;3606;52.930;8.644;2022-08-19T01:57:56;14.10;99.90
7129;DHT22;3606;52.930;8.644;2022-08-19T02:00:26;14.10;99.90
7129;DHT22;3606;52.930;8.644;2022-08-19T02:02:53;13.90;99.90
7129;DHT22;3606;52.930;8.644;2022-08-19T02:05:19;14.00;99.90
7129;DHT22;3606;52.930;8.644;2022-08-19T02:07:47;13.90;99.90
7129;DHT22;3606;52.930;8.644;2022-08-19T02:10:19;13.90;99.90
7129;DHT22;3606;52.930;8.644;2022-08-19T02:12:45;13.90;99.90
7129;DHT22;3606;52.930;8.644;2022-08-19T02:15:12;13.90;99.90
7129;DHT22;3606;52.930;8.644;2022-08-19T02:17:38;13.90;99.90
7129;DHT22;3606;52.930;8.644;2022-08-19T02:20:05;13.90;99.90
7129;DHT22;3606;52.930;8.644;2022-08-19T02:22:32;13.90;99.90
7129;DHT22;3606;52.930;8.644;2022-08-19T02:24:58;14.00;99.90
7129;DHT22;3606;52.930;8.644;2022-08-19T02:27:24;14.00;99.90
7129;DHT22;3606;52.930;8.644;2022-08-19T02:29:51;14.00;99.90
7129;DHT22;3606;52.930;8.644;2022-08-19T02:32:17;13.90;99.90
7129;DHT22;3606;52.930;8.644;2022-08-19T02:34:44;13.80;99.90
7129;DHT22;3606;52.930;8.644;2022-08-19T02:37:10;13.70;99.90
7129;DHT22;3606;52.930;8.644;2022-08-19T02:39:56;13.60;99.90
7129;DHT22;3606;52.930;8.644;2022-08-19T02:42:22;13.60;99.90
7129;DHT22;3606;52.930;8.644;2022-08-19T02:44:48;13.50;99.90
7129;DHT22;3606;52.930;8.644;2022-08-19T02:47:13;13.50;99.90
7129;DHT22;3606;52.930;8.644;2022-08-19T02:49:40;13.50;99.90
7129;DHT22;3606;52.930;8.644;2022-08-19T02:52:06;13.50;99.90
7129;DHT22;3606;52.930;8.644;2022-08-19T02:54:32;13.60;99.90
7129;DHT22;3606;52.930;8.644;2022-08-19T02:56:57;13.60;99.90
7129;DHT22;3606;52.930;8.644;2022-08-19T02:59:23;13.80;99.90
7129;DHT22;3606;52.930;8.644;2022-08-19T03:01:51;14.00;99.90
7129;DHT22;3606;52.930;8.644;2022-08-19T03:04:16;14.00;99.90
7129;DHT22;3606;52.930;8.644;2022-08-19T03:06:44;14.00;99.90
7129;DHT22;3606;52.930;8.644;2022-08-19T03:09:11;14.00;99.90
7129;DHT22;3606;52.930;8.644;2022-08-19T03:11:37;13.90;99.90
7129;DHT22;3606;52.930;8.644;2022-08-19T03:14:04;13.90;99.90
7129;DHT22;3606;52.930;8.644;2022-08-19T03:16:32;14.00;99.90
7129;DHT22;3606;52.930;8.644;2022-08-19T03:18:58;13.90;99.90
7129;DHT22;3606;52.930;8.644;2022-08-19T03:21:31;13.90;99.90
7129;DHT22;3606;52.930;8.644;2022-08-19T03:24:03;13.90;99.90
7129;DHT22;3606;52.930;8.644;2022-08-19T03:26:29;13.90;99.90
7129;DHT22;3606;52.930;8.644;2022-08-19T03:28:55;13.80;99.90
7129;DHT22;3606;52.930;8.644;2022-08-19T03:31:22;13.80;99.90
7129;DHT22;3606;52.930;8.644;2022-08-19T03:33:49;13.80;99.90
7129;DHT22;3606;52.930;8.644;2022-08-19T03:36:19;13.80;99.90
7129;DHT22;3606;52.930;8.644;2022-08-19T03:38:47;13.80;99.90
7129;DHT22;3606;52.930;8.644;2022-08-19T03:41:17;13.80;99.90
7129;DHT22;3606;52.930;8.644;2022-08-19T03:43:44;13.80;99.90
7129;DHT22;3606;52.930;8.644;2022-08-19T03:46:15;13.90;99.90
7129;DHT22;3606;52.930;8.644;2022-08-19T03:48:42;13.80;99.90
7129;DHT22;3606;52.930;8.644;2022-08-19T03:51:15;13.80;99.90
7129;DHT22;3606;52.930;8.644;2022-08-19T03:53:40;13.90;99.90
7129;DHT22;3606;52.930;8.644;2022-08-19T03:56:09;13.80;99.90
7129;DHT22;3606;52.930;8.644;2022-08-19T03:58:35;13.80;99.90
7129;DHT22;3606;52.930;8.644;2022-08-19T04:01:00;13.80;99.90
7129;DHT22;3606;52.930;8.644;2022-08-19T04:03:26;13.80;99.90
7129;DHT22;3606;52.930;8.644;2022-08-19T04:05:54;13.80;99.90
7129;DHT22;3606;52.930;8.644;2022-08-19T04:08:20;13.80;99.90
7129;DHT22;3606;52.930;8.644;2022-08-19T04:10:48;13.80;99.90
7129;DHT22;3606;52.930;8.644;2022-08-19T04:13:16;13.90;99.90
7129;DHT22;3606;52.930;8.644;2022-08-19T04:15:43;13.90;99.90
7129;DHT22;3606;52.930;8.644;2022-08-19T04:18:12;14.00;99.90
7129;DHT22;3606;52.930;8.644;2022-08-19T04:20:44;14.00;99.90
7129;DHT22;3606;52.930;8.644;2022-08-19T04:23:10;13.90;99.90
7129;DHT22;3606;52.930;8.644;2022-08-19T04:25:41;13.90;99.90
7129;DHT22;3606;52.930;8.644;2022-08-19T04:28:08;13.90;99.90
7129;DHT22;3606;52.930;8.644;2022-08-19T04:30:44;13.90;99.90
7129;DHT22;3606;52.930;8.644;2022-08-19T04:33:13;13.90;99.90
7129;DHT22;3606;52.930;8.644;2022-08-19T04:35:42;13.90;99.90
7129;DHT22;3606;52.930;8.644;2022-08-19T04:38:09;13.90;99.90
7129;DHT22;3606;52.930;8.644;2022-08-19T04:40:40;13.90;99.90
7129;DHT22;3606;52.930;8.644;2022-08-19T04:43:25;13.90;99.90
7129;DHT22;3606;52.930;8.644;2022-08-19T04:45:50;13.90;99.90
7129;DHT22;3606;52.930;8.644;2022-08-19T04:48:17;14.00;99.90
7129;DHT22;3606;52.930;8.644;2022-08-19T04:50:45;14.00;99.90
7129;DHT22;3606;52.930;8.644;2022-08-19T04:53:10;14.00;99.90
7129;DHT22;3606;52.930;8.644;2022-08-19T04:55:39;14.10;99.90
7129;DHT22;3606;52.930;8.644;2022-08-19T04:58:05;14.20;99.90
7129;DHT22;3606;52.930;8.644;2022-08-19T05:00:31;14.30;99.90
7129;DHT22;3606;52.930;8.644;2022-08-19T05:02:57;14.30;99.90
7129;DHT22;3606;52.930;8.644;2022-08-19T05:05:23;14.40;99.90
7129;DHT22;3606;52.930;8.644;2022-08-19T05:07:48;14.40;99.90
7129;DHT22;3606;52.930;8.644;2022-08-19T05:10:14;14.50;99.90
7129;DHT22;3606;52.930;8.644;2022-08-19T05:12:39;14.50;99.90
7129;DHT22;3606;52.930;8.644;2022-08-19T05:15:07;14.50;99.90
7129;DHT22;3606;52.930;8.644;2022-08-19T05:17:33;14.40;99.90
7129;DHT22;3606;52.930;8.644;2022-08-19T05:19:59;14.50;99.90
7129;DHT22;3606;52.930;8.644;2022-08-19T05:22:45;14.50;99.90
7129;DHT22;3606;52.930;8.644;2022-08-19T05:25:17;14.60;99.90
7129;DHT22;3606;52.930;8.644;2022-08-19T05:27:46;14.60;99.90
7129;DHT22;3606;52.930;8.644;2022-08-19T05:30:12;14.70;99.90
7129;DHT22;3606;52.930;8.644;2022-08-19T05:32:39;14.90;99.90
7129;DHT22;3606;52.930;8.644;2022-08-19T05:35:05;15.10;99.90
7129;DHT22;3606;52.930;8.644;2022-08-19T05:37:31;15.20;99.90
7129;DHT22;3606;52.930;8.644;2022-08-19T05:39:57;15.20;99.90
7129;DHT22;3606;52.930;8.644;2022-08-19T05:42:22;15.20;99.90
7129;DHT22;3606;52.930;8.644;2022-08-19T05:44:48;15.20;99.90
7129;DHT22;3606;52.930;8.644;2022-08-19T05:47:15;15.20;99.90
7129;DHT22;3606;52.930;8.644;2022-08-19T05:49:41;15.20;99.90
7129;DHT22;3606;52.930;8.644;2022-08-19T05:52:10;15.30;99.90
7129;DHT22;3606;52.930;8.644;2022-08-19T05:54:38;15.40;99.90
7129;DHT22;3606;52.930;8.644;2022-08-19T05:57:06;15.50;99.90
7129;DHT22;3606;52.930;8.644;2022-08-19T05:59:32;15.50;99.90
7129;DHT22;3606;52.930;8.644;2022-08-19T06:02:00;15.50;99.90
7129;DHT22;3606;52.930;8.644;2022-08-19T06:04:26;15.60;99.90
7129;DHT22;3606;52.930;8.644;2022-08-19T06:06:53;15.80;99.90
7129;DHT22;3606;52.930;8.644;2022-08-19T06:09:20;16.00;99.90
7129;DHT22;3606;52.930;8.644;2022-08-19T06:11:49;16.30;99.90
7129;DHT22;3606;52.930;8.644;2022-08-19T06:14:20;16.50;99.90
7129;DHT22;3606;52.930;8.644;2022-08-19T06:16:46;16.80;99.90
7129;DHT22;3606;52.930;8.644;2022-08-19T06:19:17;17.10;99.90
7129;DHT22;3606;52.930;8.644;2022-08-19T06:21:45;17.50;99.90
7129;DHT22;3606;52.930;8.644;2022-08-19T06:24:14;17.90;99.90
7129;DHT22;3606;52.930;8.644;2022-08-19T06:26:42;18.20;99.90
7129;DHT22;3606;52.930;8.644;2022-08-19T06:29:10;18.40;99.90
7129;DHT22;3606;52.930;8.644;2022-08-19T06:31:36;18.70;99.90
7129;DHT22;3606;52.930;8.644;2022-08-19T06:34:04;19.20;93.00
7129;DHT22;3606;52.930;8.644;2022-08-19T06:36:31;19.40;99.90
7129;DHT22;3606;52.930;8.644;2022-08-19T06:39:01;19.60;99.90
7129;DHT22;3606;52.930;8.644;2022-08-19T06:41:27;20.00;96.30
7129;DHT22;3606;52.930;8.644;2022-08-19T06:43:54;20.30;1.00
7129;DHT22;3606;52.930;8.644;2022-08-19T06:46:20;20.50;1.00
7129;DHT22;3606;52.930;8.644;2022-08-19T06:48:47;20.70;99.90
7129;DHT22;3606;52.930;8.644;2022-08-19T06:51:17;21.00;99.90
7129;DHT22;3606;52.930;8.644;2022-08-19T06:53:47;21.20;1.00
7129;DHT22;3606;52.930;8.644;2022-08-19T06:56:14;21.40;99.90
7129;DHT22;3606;52.930;8.644;2022-08-19T06:58:40;21.60;99.90
7129;DHT22;3606;52.930;8.644;2022-08-19T07:01:06;21.60;99.90
7129;DHT22;3606;52.930;8.644;2022-08-19T07:03:34;21.70;99.90
7129;DHT22;3606;52.930;8.644;2022-08-19T07:06:14;22.10;99.90
7129;DHT22;3606;52.930;8.644;2022-08-19T07:08:43;22.50;99.90
7129;DHT22;3606;52.930;8.644;2022-08-19T07:11:12;22.40;99.90
7129;DHT22;3606;52.930;8.644;2022-08-19T07:13:39;22.30;99.90
7129;DHT22;3606;52.930;8.644;2022-08-19T07:16:11;22.50;99.90
7129;DHT22;3606;52.930;8.644;2022-08-19T07:18:37;22.60;65.20
7129;DHT22;3606;52.930;8.644;2022-08-19T07:21:13;22.40;99.90
7129;DHT22;3606;52.930;8.644;2022-08-19T07:23:39;22.10;99.90
7129;DHT22;3606;52.930;8.644;2022-08-19T07:28:39;22.00;99.90
7129;DHT22;3606;52.930;8.644;2022-08-19T07:31:12;22.40;99.90
7129;DHT22;3606;52.930;8.644;2022-08-19T07:33:39;23.00;1.00
7129;DHT22;3606;52.930;8.644;2022-08-19T07:36:07;23.80;1.00
7129;DHT22;3606;52.930;8.644;2022-08-19T07:38:34;24.20;99.90
7129;DHT22;3606;52.930;8.644;2022-08-19T07:41:00;23.90;99.90
7129;DHT22;3606;52.930;8.644;2022-08-19T07:43:27;23.20;99.90
7129;DHT22;3606;52.930;8.644;2022-08-19T07:45:54;23.00;1.00
7129;DHT22;3606;52.930;8.644;2022-08-19T07:48:23;23.30;1.00
7129;DHT22;3606;52.930;8.644;2022-08-19T07:50:54;23.80;99.90
7129;DHT22;3606;52.930;8.644;2022-08-19T07:53:23;24.10;99.90
7129;DHT22;3606;52.930;8.644;2022-08-19T07:55:49;24.40;50.70
7129;DHT22;3606;52.930;8.644;2022-08-19T07:58:18;24.70;1.00
7129;DHT22;3606;52.930;8.644;2022-08-19T08:00:46;25.00;1.00
7129;DHT22;3606;52.930;8.644;2022-08-19T08:03:13;24.30;1.00
7129;DHT22;3606;52.930;8.644;2022-08-19T08:05:39;23.40;20.10
7129;DHT22;3606;52.930;8.644;2022-08-19T08:08:23;23.10;99.90
7129;DHT22;3606;52.930;8.644;2022-08-19T08:11:07;23.20;99.90
7129;DHT22;3606;52.930;8.644;2022-08-19T08:13:33;22.90;99.90
7129;DHT22;3606;52.930;8.644;2022-08-19T08:16:01;22.80;99.90
7129;DHT22;3606;52.930;8.644;2022-08-19T08:18:27;23.50;99.90
7129;DHT22;3606;52.930;8.644;2022-08-19T08:20:54;23.90;1.00
7129;DHT22;3606;52.930;8.644;2022-08-19T08:23:20;23.90;1.00
7129;DHT22;3606;52.930;8.644;2022-08-19T08:25:53;23.80;11.10
7129;DHT22;3606;52.930;8.644;2022-08-19T08:28:20;23.70;1.00
7129;DHT22;3606;52.930;8.644;2022-08-19T08:30:47;23.50;1.00
7129;DHT22;3606;52.930;8.644;2022-08-19T08:33:20;23.40;69.60
7129;DHT22;3606;52.930;8.644;2022-08-19T08:35:46;23.30;1.00
7129;DHT22;3606;52.930;8.644;2022-08-19T08:38:13;23.50;31.30
7129;DHT22;3606;52.930;8.644;2022-08-19T08:40:45;23.70;1.00
7129;DHT22;3606;52.930;8.644;2022-08-19T08:43:26;24.10;1.00
7129;DHT22;3606;52.930;8.644;2022-08-19T08:46:04;24.10;1.00
7129;DHT22;3606;52.930;8.644;2022-08-19T08:51:22;24.00;1.00
7129;DHT22;3606;52.930;8.644;2022-08-19T08:53:52;24.20;1.00
7129;DHT22;3606;52.930;8.644;2022-08-19T08:56:19;24.50;1.00
7129;DHT22;3606;52.930;8.644;2022-08-19T08:59:02;25.40;99.90
7129;DHT22;3606;52.930;8.644;2022-08-19T09:01:32;26.40;99.90
7129;DHT22;3606;52.930;8.644;2022-08-19T09:03:58;27.60;99.90
7129;DHT22;3606;52.930;8.644;2022-08-19T09:06:46;27.80;31.80
7129;DHT22;3606;52.930;8.644;2022-08-19T09:09:35;28.20;16.40
7129;DHT22;3606;52.930;8.644;2022-08-19T09:17:13;30.40;1.00
7129;DHT22;3606;52.930;8.644;2022-08-19T09:19:54;30.90;1.00
7129;DHT22;3606;52.930;8.644;2022-08-19T09:22:20;30.60;1.00
7129;DHT22;3606;52.930;8.644;2022-08-19T09:24:48;30.70;1.00
7129;DHT22;3606;52.930;8.644;2022-08-19T09:27:14;30.40;1.00
7129;DHT22;3606;52.930;8.644;2022-08-19T09:29:40;30.80;1.00
7129;DHT22;3606;52.930;8.644;2022-08-19T09:32:05;31.10;1.00
7129;DHT22;3606;52.930;8.644;2022-08-19T09:34:32;31.70;1.00
7129;DHT22;3606;52.930;8.644;2022-08-19T09:36:58;31.80;1.00
7129;DHT22;3606;52.930;8.644;2022-08-19T09:39:25;31.80;1.00
7129;DHT22;3606;52.930;8.644;2022-08-19T09:41:51;31.50;1.00
7129;DHT22;3606;52.930;8.644;2022-08-19T09:44:18;32.00;1.00
7129;DHT22;3606;52.930;8.644;2022-08-19T09:46:45;32.00;99.90
7129;DHT22;3606;52.930;8.644;2022-08-19T09:49:16;32.70;99.90
7129;DHT22;3606;52.930;8.644;2022-08-19T09:51:49;32.30;99.90
7129;DHT22;3606;52.930;8.644;2022-08-19T09:54:15;31.70;99.90
7129;DHT22;3606;52.930;8.644;2022-08-19T09:56:41;31.10;99.90
7129;DHT22;3606;52.930;8.644;2022-08-19T09:59:06;30.70;99.90
7129;DHT22;3606;52.930;8.644;2022-08-19T10:01:32;30.80;99.90
7129;DHT22;3606;52.930;8.644;2022-08-19T10:03:59;31.30;99.90
7129;DHT22;3606;52.930;8.644;2022-08-19T10:06:27;31.80;99.90
7129;DHT22;3606;52.930;8.644;2022-08-19T10:08:55;32.00;99.90
7129;DHT22;3606;52.930;8.644;2022-08-19T10:11:21;32.30;99.90
7129;DHT22;3606;52.930;8.644;2022-08-19T10:13:47;32.40;99.90
7129;DHT22;3606;52.930;8.644;2022-08-19T10:16:16;32.10;99.90
7129;DHT22;3606;52.930;8.644;2022-08-19T10:18:43;32.10;99.90
7129;DHT22;3606;52.930;8.644;2022-08-19T10:21:35;31.90;99.90
7129;DHT22;3606;52.930;8.644;2022-08-19T10:24:03;32.00;99.90
7129;DHT22;3606;52.930;8.644;2022-08-19T10:26:32;32.70;99.90
7129;DHT22;3606;52.930;8.644;2022-08-19T10:28:58;33.00;99.90
7129;DHT22;3606;52.930;8.644;2022-08-19T10:31:27;33.20;99.90
7129;DHT22;3606;52.930;8.644;2022-08-19T10:33:54;33.20;99.90
7129;DHT22;3606;52.930;8.644;2022-08-19T10:36:25;33.70;99.90
7129;DHT22;3606;52.930;8.644;2022-08-19T10:38:53;34.00;99.90
7129;DHT22;3606;52.930;8.644;2022-08-19T10:41:23;33.60;99.90
7129;DHT22;3606;52.930;8.644;2022-08-19T10:43:54;33.40;99.90
7129;DHT22;3606;52.930;8.644;2022-08-19T10:46:22;34.30;99.90
7129;DHT22;3606;52.930;8.644;2022-08-19T10:48:49;34.50;99.90
7129;DHT22;3606;52.930;8.644;2022-08-19T10:51:15;34.40;99.90
7129;DHT22;3606;52.930;8.644;2022-08-19T10:54:00;33.90;99.90
7129;DHT22;3606;52.930;8.644;2022-08-19T10:56:27;33.20;99.90
7129;DHT22;3606;52.930;8.644;2022-08-19T10:59:11;32.80;99.90
7129;DHT22;3606;52.930;8.644;2022-08-19T11:01:40;32.50;99.90
7129;DHT22;3606;52.930;8.644;2022-08-19T11:04:06;31.90;99.90
7129;DHT22;3606;52.930;8.644;2022-08-19T11:06:38;30.80;99.90
7129;DHT22;3606;52.930;8.644;2022-08-19T11:09:05;29.70;99.90
7129;DHT22;3606;52.930;8.644;2022-08-19T11:11:31;29.00;99.90
7129;DHT22;3606;52.930;8.644;2022-08-19T11:13:57;29.00;99.90
7129;DHT22;3606;52.930;8.644;2022-08-19T11:16:25;29.90;99.90
7129;DHT22;3606;52.930;8.644;2022-08-19T11:18:54;30.90;99.90
7129;DHT22;3606;52.930;8.644;2022-08-19T11:21:24;31.20;99.90
7129;DHT22;3606;52.930;8.644;2022-08-19T11:23:53;30.70;99.90
7129;DHT22;3606;52.930;8.644;2022-08-19T11:26:20;30.50;99.90
7129;DHT22;3606;52.930;8.644;2022-08-19T11:28:47;30.50;99.90
7129;DHT22;3606;52.930;8.644;2022-08-19T11:31:16;30.10;99.90
7129;DHT22;3606;52.930;8.644;2022-08-19T11:33:42;30.30;99.90
7129;DHT22;3606;52.930;8.644;2022-08-19T11:36:09;30.80;99.90
7129;DHT22;3606;52.930;8.644;2022-08-19T11:38:36;31.30;99.90
7129;DHT22;3606;52.930;8.644;2022-08-19T11:41:06;30.70;99.90
7129;DHT22;3606;52.930;8.644;2022-08-19T11:43:33;30.60;99.90
7129;DHT22;3606;52.930;8.644;2022-08-19T11:45:58;30.70;99.90
7129;DHT22;3606;52.930;8.644;2022-08-19T11:48:25;30.80;99.90
7129;DHT22;3606;52.930;8.644;2022-08-19T11:50:53;30.90;99.90
7129;DHT22;3606;52.930;8.644;2022-08-19T11:53:22;30.80;99.90
7129;DHT22;3606;52.930;8.644;2022-08-19T11:55:49;30.90;99.90
7129;DHT22;3606;52.930;8.644;2022-08-19T11:58:16;30.80;99.90
7129;DHT22;3606;52.930;8.644;2022-08-19T12:00:43;31.00;99.90
7129;DHT22;3606;52.930;8.644;2022-08-19T12:03:11;31.30;99.90
7129;DHT22;3606;52.930;8.644;2022-08-19T12:05:38;31.50;99.90
7129;DHT22;3606;52.930;8.644;2022-08-19T12:08:04;31.50;99.90
7129;DHT22;3606;52.930;8.644;2022-08-19T12:10:30;31.10;99.90
7129;DHT22;3606;52.930;8.644;2022-08-19T12:12:55;30.50;99.90
7129;DHT22;3606;52.930;8.644;2022-08-19T12:15:21;30.50;99.90
7129;DHT22;3606;52.930;8.644;2022-08-19T12:17:47;30.60;99.90
7129;DHT22;3606;52.930;8.644;2022-08-19T12:20:13;30.40;99.90
7129;DHT22;3606;52.930;8.644;2022-08-19T12:22:41;30.20;99.90
7129;DHT22;3606;52.930;8.644;2022-08-19T12:25:11;30.00;99.90
7129;DHT22;3606;52.930;8.644;2022-08-19T12:27:37;30.00;99.90
7129;DHT22;3606;52.930;8.644;2022-08-19T12:30:05;30.30;99.90
7129;DHT22;3606;52.930;8.644;2022-08-19T12:32:31;30.30;99.90
7129;DHT22;3606;52.930;8.644;2022-08-19T12:34:57;30.80;99.90
7129;DHT22;3606;52.930;8.644;2022-08-19T12:37:22;30.70;99.90
7129;DHT22;3606;52.930;8.644;2022-08-19T12:39:48;30.50;99.90
7129;DHT22;3606;52.930;8.644;2022-08-19T12:42:14;30.50;99.90
7129;DHT22;3606;52.930;8.644;2022-08-19T12:44:41;30.90;99.90
7129;DHT22;3606;52.930;8.644;2022-08-19T12:47:08;31.10;99.90
7129;DHT22;3606;52.930;8.644;2022-08-19T12:49:35;31.40;99.90
7129;DHT22;3606;52.930;8.644;2022-08-19T12:52:03;31.90;99.90
7129;DHT22;3606;52.930;8.644;2022-08-19T12:54:30;32.40;99.90
7129;DHT22;3606;52.930;8.644;2022-08-19T12:56:56;32.60;99.90
7129;DHT22;3606;52.930;8.644;2022-08-19T12:59:22;32.50;99.90
7129;DHT22;3606;52.930;8.644;2022-08-19T13:01:47;32.50;99.90
7129;DHT22;3606;52.930;8.644;2022-08-19T13:04:13;32.40;99.90
7129;DHT22;3606;52.930;8.644;2022-08-19T13:06:39;32.20;99.90
7129;DHT22;3606;52.930;8.644;2022-08-19T13:09:05;31.90;99.90
7129;DHT22;3606;52.930;8.644;2022-08-19T13:11:30;31.70;99.90
7129;DHT22;3606;52.930;8.644;2022-08-19T13:14:01;31.80;99.90
7129;DHT22;3606;52.930;8.644;2022-08-19T13:16:28;32.10;99.90
7129;DHT22;3606;52.930;8.644;2022-08-19T13:18:54;33.00;99.90
7129;DHT22;3606;52.930;8.644;2022-08-19T13:21:22;33.80;99.90
7129;DHT22;3606;52.930;8.644;2022-08-19T13:23:49;34.30;99.90
7129;DHT22;3606;52.930;8.644;2022-08-19T13:26:15;34.50;99.90
7129;DHT22;3606;52.930;8.644;2022-08-19T13:28:42;34.60;99.90
7129;DHT22;3606;52.930;8.644;2022-08-19T13:31:30;34.60;99.90
7129;DHT22;3606;52.930;8.644;2022-08-19T13:34:17;34.50;99.90
7129;DHT22;3606;52.930;8.644;2022-08-19T13:36:44;34.80;99.90
7129;DHT22;3606;52.930;8.644;2022-08-19T13:39:10;34.90;99.90
7129;DHT22;3606;52.930;8.644;2022-08-19T13:41:37;35.30;99.90
7129;DHT22;3606;52.930;8.644;2022-08-19T13:44:04;35.10;99.90
7129;DHT22;3606;52.930;8.644;2022-08-19T13:46:29;34.40;99.90
7129;DHT22;3606;52.930;8.644;2022-08-19T13:48:56;34.40;99.90
7129;DHT22;3606;52.930;8.644;2022-08-19T13:51:22;35.10;99.90
7129;DHT22;3606;52.930;8.644;2022-08-19T13:53:48;34.90;99.90
7129;DHT22;3606;52.930;8.644;2022-08-19T13:56:16;33.90;99.90
7129;DHT22;3606;52.930;8.644;2022-08-19T13:58:42;33.80;99.90
7129;DHT22;3606;52.930;8.644;2022-08-19T14:01:08;34.10;99.90
7129;DHT22;3606;52.930;8.644;2022-08-19T14:03:34;34.00;99.90
7129;DHT22;3606;52.930;8.644;2022-08-19T14:06:00;33.80;99.90
7129;DHT22;3606;52.930;8.644;2022-08-19T14:08:26;34.10;99.90
7129;DHT22;3606;52.930;8.644;2022-08-19T14:10:54;33.70;99.90
7129;DHT22;3606;52.930;8.644;2022-08-19T14:13:21;33.90;99.90
7129;DHT22;3606;52.930;8.644;2022-08-19T14:15:48;34.40;99.90
7129;DHT22;3606;52.930;8.644;2022-08-19T14:18:17;34.90;99.90
7129;DHT22;3606;52.930;8.644;2022-08-19T14:20:43;35.10;99.90
7129;DHT22;3606;52.930;8.644;2022-08-19T14:23:09;34.90;99.90
7129;DHT22;3606;52.930;8.644;2022-08-19T14:25:35;34.40;99.90
7129;DHT22;3606;52.930;8.644;2022-08-19T14:28:01;32.70;99.90
7129;DHT22;3606;52.930;8.644;2022-08-19T14:30:29;30.80;99.90
7129;DHT22;3606;52.930;8.644;2022-08-19T14:32:56;31.00;99.90
7129;DHT22;3606;52.930;8.644;2022-08-19T14:35:24;31.70;99.90
7129;DHT22;3606;52.930;8.644;2022-08-19T14:37:51;31.50;99.90
7129;DHT22;3606;52.930;8.644;2022-08-19T14:40:24;31.80;99.90
7129;DHT22;3606;52.930;8.644;2022-08-19T14:42:58;30.80;99.90
7129;DHT22;3606;52.930;8.644;2022-08-19T14:45:26;30.50;99.90
7129;DHT22;3606;52.930;8.644;2022-08-19T14:47:52;31.10;99.90
7129;DHT22;3606;52.930;8.644;2022-08-19T14:50:18;31.90;99.90
7129;DHT22;3606;52.930;8.644;2022-08-19T14:52:48;32.80;99.90
7129;DHT22;3606;52.930;8.644;2022-08-19T14:55:15;33.40;99.90
7129;DHT22;3606;52.930;8.644;2022-08-19T14:57:42;34.10;99.90
7129;DHT22;3606;52.930;8.644;2022-08-19T15:00:09;34.50;99.90
7129;DHT22;3606;52.930;8.644;2022-08-19T15:02:39;34.70;99.90
7129;DHT22;3606;52.930;8.644;2022-08-19T15:05:07;34.60;99.90
7129;DHT22;3606;52.930;8.644;2022-08-19T15:07:33;34.80;99.90
7129;DHT22;3606;52.930;8.644;2022-08-19T15:09:59;35.10;99.90
7129;DHT22;3606;52.930;8.644;2022-08-19T15:12:24;35.00;99.90
7129;DHT22;3606;52.930;8.644;2022-08-19T15:14:50;34.90;99.90
7129;DHT22;3606;52.930;8.644;2022-08-19T15:17:17;34.70;99.90
7129;DHT22;3606;52.930;8.644;2022-08-19T15:19:43;34.30;99.90
7129;DHT22;3606;52.930;8.644;2022-08-19T15:22:08;34.20;99.90
7129;DHT22;3606;52.930;8.644;2022-08-19T15:24:34;33.90;99.90
7129;DHT22;3606;52.930;8.644;2022-08-19T15:27:01;33.30;99.90
7129;DHT22;3606;52.930;8.644;2022-08-19T15:29:27;33.00;99.90
7129;DHT22;3606;52.930;8.644;2022-08-19T15:31:54;32.60;99.90
7129;DHT22;3606;52.930;8.644;2022-08-19T15:34:24;32.50;99.90
7129;DHT22;3606;52.930;8.644;2022-08-19T15:36:51;32.00;99.90
7129;DHT22;3606;52.930;8.644;2022-08-19T15:39:17;31.10;99.90
7129;DHT22;3606;52.930;8.644;2022-08-19T15:41:44;29.60;99.90
7129;DHT22;3606;52.930;8.644;2022-08-19T15:44:13;28.70;99.90
7129;DHT22;3606;52.930;8.644;2022-08-19T15:46:42;28.20;99.90
7129;DHT22;3606;52.930;8.644;2022-08-19T15:49:09;27.70;99.90
7129;DHT22;3606;52.930;8.644;2022-08-19T15:51:36;27.40;99.90
7129;DHT22;3606;52.930;8.644;2022-08-19T15:54:04;27.20;99.90
7129;DHT22;3606;52.930;8.644;2022-08-19T15:56:30;27.20;99.90
7129;DHT22;3606;52.930;8.644;2022-08-19T15:59:14;27.00;99.90
7129;DHT22;3606;52.930;8.644;2022-08-19T16:01:58;26.90;99.90
7129;DHT22;3606;52.930;8.644;2022-08-19T16:04:42;26.90;99.90
7129;DHT22;3606;52.930;8.644;2022-08-19T16:07:26;26.90;99.90
7129;DHT22;3606;52.930;8.644;2022-08-19T16:09:52;26.80;99.90
7129;DHT22;3606;52.930;8.644;2022-08-19T16:12:17;26.70;99.90
7129;DHT22;3606;52.930;8.644;2022-08-19T16:14:43;26.70;99.90
7129;DHT22;3606;52.930;8.644;2022-08-19T16:17:09;26.60;99.90
7129;DHT22;3606;52.930;8.644;2022-08-19T16:19:37;26.60;99.90